Time;durP1;ratioP1;P1;durP2;ratioP2;P2;SDS_P1;SDS_P2;PMS_P1;PMS_P2;Temp;Humidity;BMP_temperature;BMP_pressure;BME280_temperature;BME280_humidity;BME280_pressure;Samples;Min_cycle;Max_cycle;Signal;HPM_P1;HPM_P2
2022/07/31 00:01:47;;;;;;;3.50;1.75;;;22.60;57.90;;;;;;5035768;28;20056;-73
2022/07/31 00:04:13;;;;;;;2.90;1.85;;;23.60;61.60;;;;;;5053672;28;20102;-73
2022/07/31 00:06:42;;;;;;;2.20;1.75;;;22.60;62.30;;;;;;5053355;28;20055;-73
2022/07/31 00:09:09;;;;;;;2.65;1.95;;;22.60;57.90;;;;;;5036163;28;20111;-73
2022/07/31 00:11:35;;;;;;;3.03;2.13;;;22.70;57.90;;;;;;5035698;28;20412;-73
2022/07/31 00:14:02;;;;;;;2.25;1.88;;;22.60;57.90;;;;;;5035746;28;20055;-72
2022/07/31 00:16:30;;;;;;;2.55;1.83;;;22.60;57.90;;;;;;5035697;28;20159;-72
2022/07/31 00:18:57;;;;;;;2.20;1.80;;;22.60;57.90;;;;;;5036026;28;20063;-73
2022/07/31 00:21:24;;;;;;;2.63;1.58;;;22.60;61.40;;;;;;5035432;28;20454;-72
2022/07/31 00:23:51;;;;;;;3.75;1.70;;;22.60;57.90;;;;;;5035381;28;20067;-72
2022/07/31 00:26:17;;;;;;;2.50;1.90;;;22.60;57.90;;;;;;5035789;28;20063;-72
2022/07/31 00:28:46;;;;;;;2.47;1.95;;;22.60;57.90;;;;;;5035518;28;20144;-73
2022/07/31 00:31:13;;;;;;;3.65;2.00;;;22.60;57.90;;;;;;5035678;28;20076;-73
2022/07/31 00:33:41;;;;;;;2.83;1.73;;;22.50;57.90;;;;;;5035131;28;20083;-73
2022/07/31 00:36:08;;;;;;;2.78;2.00;;;22.60;57.90;;;;;;5052875;28;20045;-72
2022/07/31 00:38:34;;;;;;;2.58;1.80;;;22.60;58.00;;;;;;5035077;28;20057;-73
2022/07/31 00:41:02;;;;;;;2.28;1.85;;;22.60;58.00;;;;;;5035229;28;20170;-72
2022/07/31 00:43:29;;;;;;;2.65;1.80;;;22.60;58.00;;;;;;5034884;28;20076;-72
2022/07/31 00:45:58;;;;;;;2.90;1.85;;;21.60;60.60;;;;;;5053332;28;20110;-73
2022/07/31 00:48:24;;;;;;;2.03;1.73;;;22.40;61.60;;;;;;5035194;28;20135;-72
2022/07/31 00:50:52;;;;;;;2.63;1.90;;;22.60;58.00;;;;;;5034365;28;20049;-73
2022/07/31 00:53:19;;;;;;;2.33;1.70;;;22.50;58.00;;;;;;5034785;28;20053;-72
2022/07/31 00:55:46;;;;;;;2.08;1.70;;;22.50;58.00;;;;;;5035168;28;20053;-72
2022/07/31 00:58:13;;;;;;;2.45;1.95;;;22.10;60.90;;;;;;5052880;28;20048;-73
2022/07/31 01:00:39;;;;;;;2.65;1.92;;;22.60;61.00;;;;;;5034954;28;20057;-72
2022/07/31 01:03:06;;;;;;;1.92;1.63;;;22.50;58.10;;;;;;5034255;28;20068;-73
2022/07/31 01:05:33;;;;;;;2.50;1.90;;;23.60;62.10;;;;;;5018224;28;20081;-73
2022/07/31 01:08:01;;;;;;;2.92;1.80;;;22.50;58.10;;;;;;5031460;28;20045;-73
2022/07/31 01:10:36;;;;;;;2.70;2.15;;;22.50;58.10;;;;;;5031525;28;20558;-72
2022/07/31 01:13:07;;;;;;;1.83;1.63;;;22.50;58.10;;;;;;5031378;28;20494;-72
2022/07/31 01:15:33;;;;;;;2.38;1.80;;;22.50;62.10;;;;;;5032571;28;20053;-73
2022/07/31 01:18:00;;;;;;;2.92;1.50;;;22.40;58.00;;;;;;5030682;28;20050;-73
2022/07/31 01:20:27;;;;;;;2.25;1.95;;;22.50;58.10;;;;;;5016212;28;20053;-73
2022/07/31 01:23:07;;;;;;;2.03;1.63;;;23.60;62.70;;;;;;5034007;28;20507;-73
2022/07/31 01:25:40;;;;;;;1.90;1.70;;;23.20;62.10;;;;;;5034314;28;20057;-73
2022/07/31 01:28:13;;;;;;;2.05;1.75;;;22.40;58.00;;;;;;5034381;28;20128;-72
2022/07/31 01:30:44;;;;;;;2.17;1.85;;;22.70;60.50;;;;;;5034404;28;20056;-72
2022/07/31 01:33:13;;;;;;;2.15;1.88;;;22.40;58.10;;;;;;5033965;28;20136;-73
2022/07/31 01:35:42;;;;;;;1.75;1.55;;;22.30;62.40;;;;;;5034288;28;20059;-73
2022/07/31 01:38:10;;;;;;;2.45;2.10;;;22.70;61.80;;;;;;5034214;28;20056;-73
2022/07/31 01:40:41;;;;;;;2.03;1.80;;;22.50;60.50;;;;;;5033836;28;20053;-72
2022/07/31 01:43:11;;;;;;;3.53;1.92;;;22.30;61.90;;;;;;5033941;28;20053;-73
2022/07/31 01:45:38;;;;;;;1.92;1.58;;;22.40;58.10;;;;;;5051926;28;20413;-73
2022/07/31 01:48:07;;;;;;;2.55;1.85;;;22.30;61.90;;;;;;5034115;28;20055;-72
2022/07/31 01:50:34;;;;;;;2.40;1.73;;;23.00;60.70;;;;;;5033390;28;20106;-73
2022/07/31 01:53:01;;;;;;;2.20;1.60;;;22.40;58.10;;;;;;5033843;28;20068;-73
2022/07/31 01:55:27;;;;;;;2.33;1.80;;;22.40;58.20;;;;;;5034079;28;20578;-73
2022/07/31 01:57:54;;;;;;;2.30;1.52;;;22.40;58.20;;;;;;5034020;28;20123;-73
2022/07/31 02:00:21;;;;;;;2.15;1.77;;;22.30;58.10;;;;;;5033973;28;20140;-73
2022/07/31 02:02:48;;;;;;;1.73;1.50;;;22.40;58.20;;;;;;5032669;28;20064;-73
2022/07/31 02:05:16;;;;;;;2.17;1.67;;;22.30;58.10;;;;;;5034002;28;20052;-73
2022/07/31 02:07:42;;;;;;;3.75;1.70;;;22.30;58.10;;;;;;5051667;28;20053;-72
2022/07/31 02:10:10;;;;;;;2.10;1.70;;;22.30;58.20;;;;;;5034056;28;20052;-73
2022/07/31 02:12:37;;;;;;;2.75;1.60;;;22.30;58.20;;;;;;5033798;28;20056;-73
2022/07/31 02:15:04;;;;;;;1.75;1.60;;;22.30;58.20;;;;;;5033514;28;20088;-73
2022/07/31 02:17:31;;;;;;;1.70;1.50;;;22.30;58.20;;;;;;5033458;28;20136;-73
2022/07/31 02:19:57;;;;;;;2.30;1.77;;;23.10;63.00;;;;;;5033831;28;20053;-73
2022/07/31 02:22:25;;;;;;;2.22;1.65;;;22.30;58.20;;;;;;5033754;28;20504;-73
2022/07/31 02:24:52;;;;;;;2.38;1.70;;;22.50;58.40;;;;;;5051255;28;20129;-73
2022/07/31 02:27:19;;;;;;;1.80;1.60;;;22.30;58.20;;;;;;5051243;28;20053;-73
2022/07/31 02:29:46;;;;;;;1.90;1.60;;;22.30;62.30;;;;;;5033873;28;20063;-73
2022/07/31 02:32:13;;;;;;;1.90;1.60;;;22.30;58.20;;;;;;5051069;28;20059;-72
2022/07/31 02:34:39;;;;;;;1.90;1.50;;;21.50;61.50;;;;;;5051046;28;20068;-73
2022/07/31 02:37:06;;;;;;;3.25;1.65;;;22.20;58.20;;;;;;5033495;28;20057;-72
2022/07/31 02:39:35;;;;;;;2.05;1.40;;;22.20;58.20;;;;;;5051259;28;20061;-72
2022/07/31 02:42:01;;;;;;;1.65;1.48;;;22.10;62.20;;;;;;5051244;28;20053;-73
2022/07/31 02:44:28;;;;;;;1.90;1.70;;;23.20;63.20;;;;;;5033188;28;20083;-73
2022/07/31 02:46:56;;;;;;;1.60;1.50;;;22.30;62.00;;;;;;5033375;28;20401;-72
2022/07/31 02:49:23;;;;;;;2.28;1.60;;;22.20;58.20;;;;;;5033616;28;20532;-73
2022/07/31 02:51:50;;;;;;;2.03;1.65;;;22.20;58.20;;;;;;5033371;28;20063;-72
2022/07/31 02:54:17;;;;;;;2.22;1.70;;;22.20;58.20;;;;;;5050982;28;20052;-73
2022/07/31 02:56:45;;;;;;;1.70;1.55;;;22.20;58.20;;;;;;5033029;28;20059;-73
2022/07/31 02:59:14;;;;;;;1.90;1.60;;;22.20;58.20;;;;;;5033529;28;20052;-72
2022/07/31 03:01:41;;;;;;;1.98;1.48;;;21.90;61.90;;;;;;5051014;28;20049;-72
2022/07/31 03:04:08;;;;;;;2.08;1.60;;;22.10;58.70;;;;;;5032885;28;20088;-73
2022/07/31 03:06:35;;;;;;;1.90;1.60;;;22.10;58.10;;;;;;5033394;28;20057;-73
2022/07/31 03:09:02;;;;;;;1.83;1.55;;;22.00;61.90;;;;;;5050959;28;20413;-73
2022/07/31 03:11:28;;;;;;;1.90;1.70;;;22.70;62.20;;;;;;5033419;28;20084;-73
2022/07/31 03:13:57;;;;;;;2.50;1.50;;;22.20;58.20;;;;;;5034060;28;20500;-72
2022/07/31 03:16:24;;;;;;;1.95;1.50;;;22.10;58.10;;;;;;5017218;28;20502;-73
2022/07/31 03:18:51;;;;;;;1.58;1.48;;;22.10;61.90;;;;;;5017034;28;20056;-72
2022/07/31 03:21:18;;;;;;;2.08;1.60;;;22.20;58.20;;;;;;5033522;28;20406;-72
2022/07/31 03:23:44;;;;;;;1.70;1.50;;;22.20;58.20;;;;;;5033201;28;20111;-73
2022/07/31 03:26:12;;;;;;;2.17;1.60;;;22.10;62.30;;;;;;5033645;28;20413;-73
2022/07/31 03:28:39;;;;;;;2.05;1.55;;;22.10;58.10;;;;;;5039072;28;20452;-73
2022/07/31 03:31:07;;;;;;;1.70;1.42;;;20.80;62.00;;;;;;5036836;28;20053;-73
2022/07/31 03:33:34;;;;;;;1.55;1.40;;;22.10;58.10;;;;;;5036519;28;20056;-72
2022/07/31 03:36:01;;;;;;;2.15;1.58;;;22.10;58.70;;;;;;5036531;28;20080;-73
2022/07/31 03:38:28;;;;;;;2.00;1.40;;;22.00;62.10;;;;;;5036375;28;20055;-73
2022/07/31 03:40:54;;;;;;;2.22;1.58;;;22.10;58.20;;;;;;5036589;28;20063;-72
2022/07/31 03:43:21;;;;;;;2.42;1.70;;;22.10;58.10;;;;;;5053928;28;20123;-72
2022/07/31 03:45:48;;;;;;;1.63;1.48;;;22.10;62.70;;;;;;5053932;28;20490;-73
2022/07/31 03:48:16;;;;;;;2.65;1.60;;;22.40;58.30;;;;;;5027976;28;20046;-72
2022/07/31 03:50:43;;;;;;;2.10;1.48;;;21.70;60.50;;;;;;5035815;28;20053;-72
2022/07/31 03:53:10;;;;;;;1.60;1.42;;;22.10;58.20;;;;;;5036000;28;20057;-72
2022/07/31 03:55:37;;;;;;;1.60;1.50;;;22.10;58.10;;;;;;5035886;28;20677;-73
2022/07/31 03:58:04;;;;;;;1.80;1.50;;;22.10;61.70;;;;;;5035821;28;20397;-72
2022/07/31 04:00:31;;;;;;;1.77;1.60;;;22.10;60.10;;;;;;5053727;28;20045;-72
2022/07/31 04:02:58;;;;;;;1.55;1.33;;;22.10;58.20;;;;;;5027085;28;20128;-72
2022/07/31 04:05:26;;;;;;;1.77;1.38;;;22.10;62.30;;;;;;5035433;28;20063;-72
2022/07/31 04:07:53;;;;;;;2.13;1.60;;;22.10;58.20;;;;;;5035714;28;20420;-73
2022/07/31 04:10:19;;;;;;;2.47;1.70;;;22.00;58.10;;;;;;5035664;28;20151;-72
2022/07/31 04:15:22;;;;;;;1.92;1.40;;;22.30;61.40;;;;;;6001340;22;20101;-70
2022/07/31 04:20:26;;;;;;;1.80;1.48;;;22.10;60.90;;;;;;6086950;23;20047;-72
2022/07/31 04:22:53;;;;;;;1.85;1.42;;;22.10;58.00;;;;;;5026363;28;21800;-71
2022/07/31 04:25:20;;;;;;;2.15;1.80;;;22.00;58.10;;;;;;4996336;28;20091;-72
2022/07/31 04:27:46;;;;;;;1.77;1.45;;;22.00;58.10;;;;;;5015940;28;20404;-73
2022/07/31 04:30:13;;;;;;;1.90;1.60;;;21.70;60.60;;;;;;5015351;28;20055;-72
2022/07/31 04:32:40;;;;;;;1.80;1.50;;;22.20;62.50;;;;;;5015195;28;20050;-73
2022/07/31 04:35:08;;;;;;;1.80;1.50;;;22.00;58.10;;;;;;5015452;28;20057;-73
2022/07/31 04:37:36;;;;;;;1.67;1.40;;;22.00;58.20;;;;;;5015775;28;20053;-73
2022/07/31 04:40:03;;;;;;;1.80;1.50;;;22.00;58.20;;;;;;5033262;28;20045;-73
2022/07/31 04:42:30;;;;;;;1.90;1.55;;;22.00;58.70;;;;;;5033179;28;20053;-73
2022/07/31 04:44:57;;;;;;;1.77;1.50;;;22.00;58.10;;;;;;5033453;28;20072;-73
2022/07/31 04:47:24;;;;;;;1.95;1.50;;;22.00;58.10;;;;;;5015611;28;20049;-73
2022/07/31 04:49:51;;;;;;;1.75;1.55;;;22.40;62.20;;;;;;5015549;28;20499;-73
2022/07/31 04:52:17;;;;;;;1.52;1.40;;;22.00;58.20;;;;;;5032865;28;20107;-72
2022/07/31 04:54:45;;;;;;;2.22;1.45;;;22.00;58.10;;;;;;4995686;28;20133;-73
2022/07/31 04:57:12;;;;;;;2.28;1.60;;;22.00;58.10;;;;;;5012992;28;20049;-72
2022/07/31 04:59:39;;;;;;;1.83;1.55;;;22.10;62.00;;;;;;5013318;28;20049;-73
2022/07/31 05:02:06;;;;;;;2.42;1.75;;;22.00;58.20;;;;;;4995690;28;20081;-73
2022/07/31 05:04:32;;;;;;;1.85;1.50;;;22.00;58.10;;;;;;5030886;28;20128;-72
2022/07/31 05:06:59;;;;;;;1.65;1.52;;;22.00;58.10;;;;;;5015415;28;20132;-73
2022/07/31 05:09:29;;;;;;;1.85;1.55;;;22.00;58.10;;;;;;5015299;28;20128;-72
2022/07/31 05:11:57;;;;;;;1.85;1.48;;;21.90;58.00;;;;;;5015067;28;20057;-73
2022/07/31 05:14:23;;;;;;;1.58;1.40;;;21.90;62.00;;;;;;5015068;28;20390;-73
2022/07/31 05:16:50;;;;;;;1.77;1.50;;;22.00;58.00;;;;;;5015131;28;20053;-73
2022/07/31 05:19:17;;;;;;;1.80;1.60;;;22.10;58.00;;;;;;5031321;28;20049;-73
2022/07/31 05:21:44;;;;;;;1.70;1.42;;;22.90;62.10;;;;;;5014783;28;20064;-73
2022/07/31 05:24:10;;;;;;;2.28;1.55;;;22.10;58.00;;;;;;5014648;28;20100;-73
2022/07/31 05:26:37;;;;;;;1.45;1.30;;;22.10;57.90;;;;;;5014604;28;20520;-73
2022/07/31 05:29:06;;;;;;;1.75;1.33;;;22.10;62.90;;;;;;5014530;28;20065;-73
2022/07/31 05:31:32;;;;;;;2.08;1.73;;;22.10;57.90;;;;;;5014174;28;20136;-73
2022/07/31 05:33:59;;;;;;;1.90;1.52;;;22.10;57.90;;;;;;5014844;28;20057;-73
2022/07/31 05:36:26;;;;;;;2.05;1.70;;;22.30;62.00;;;;;;5032301;28;20132;-73
2022/07/31 05:38:53;;;;;;;1.58;1.48;;;22.10;62.10;;;;;;5032213;28;20046;-73
2022/07/31 05:41:20;;;;;;;1.70;1.60;;;22.10;57.80;;;;;;5031359;28;20060;-73
2022/07/31 05:43:46;;;;;;;2.13;1.40;;;22.10;62.70;;;;;;5032316;28;20124;-73
2022/07/31 05:46:16;;;;;;;1.70;1.50;;;22.10;57.70;;;;;;5032157;28;20084;-73
2022/07/31 05:48:43;;;;;;;1.85;1.65;;;21.80;62.20;;;;;;5014669;28;20134;-73
2022/07/31 05:51:10;;;;;;;1.70;1.35;;;22.20;57.80;;;;;;5013927;28;20144;-73
2022/07/31 05:53:37;;;;;;;1.70;1.60;;;21.90;61.60;;;;;;5014664;28;20490;-73
2022/07/31 05:56:04;;;;;;;2.20;1.30;;;22.20;57.80;;;;;;5014583;28;20064;-73
2022/07/31 05:58:31;;;;;;;2.05;1.73;;;22.20;57.70;;;;;;5030931;28;20053;-73
2022/07/31 06:00:58;;;;;;;1.88;1.60;;;22.20;57.70;;;;;;5013751;28;20059;-73
2022/07/31 06:03:27;;;;;;;1.80;1.60;;;22.30;61.80;;;;;;5031907;28;20136;-73
2022/07/31 06:05:54;;;;;;;2.30;1.50;;;22.40;62.60;;;;;;5032127;28;20053;-73
2022/07/31 06:08:21;;;;;;;1.88;1.48;;;22.20;57.80;;;;;;5014159;28;20057;-72
2022/07/31 06:10:47;;;;;;;2.05;1.50;;;22.20;57.70;;;;;;5013614;28;20085;-72
2022/07/31 06:13:14;;;;;;;1.63;1.40;;;22.20;57.70;;;;;;5014352;28;20504;-73
2022/07/31 06:15:41;;;;;;;1.60;1.50;;;22.20;57.70;;;;;;5014330;28;20084;-73
2022/07/31 06:18:08;;;;;;;1.60;1.40;;;22.10;62.50;;;;;;5031744;28;20050;-73
2022/07/31 06:20:36;;;;;;;1.45;1.30;;;22.50;57.80;;;;;;5013407;28;20067;-73
2022/07/31 06:23:02;;;;;;;2.13;1.73;;;22.30;57.70;;;;;;5031460;28;20049;-73
2022/07/31 06:25:29;;;;;;;1.55;1.45;;;22.30;57.70;;;;;;5014338;28;20136;-73
2022/07/31 06:27:56;;;;;;;1.75;1.48;;;22.20;57.60;;;;;;5014339;28;20059;-73
2022/07/31 06:30:23;;;;;;;1.55;1.45;;;22.20;60.60;;;;;;5030197;28;20382;-73
2022/07/31 06:32:49;;;;;;;2.25;1.50;;;22.20;57.60;;;;;;5031577;28;20136;-73
2022/07/31 06:35:16;;;;;;;2.17;1.70;;;22.20;57.60;;;;;;5031532;28;20081;-73
2022/07/31 06:37:44;;;;;;;2.17;1.58;;;22.00;61.20;;;;;;5031293;28;20045;-71
2022/07/31 06:40:12;;;;;;;2.22;1.60;;;22.20;57.60;;;;;;5027664;28;20473;-72
2022/07/31 06:42:39;;;;;;;1.67;1.50;;;22.20;57.60;;;;;;5025984;28;20132;-72
2022/07/31 06:45:07;;;;;;;1.50;1.40;;;23.20;62.00;;;;;;5031632;28;20045;-72
2022/07/31 06:47:34;;;;;;;1.98;1.50;;;22.40;61.50;;;;;;5014194;28;20057;-72
2022/07/31 06:50:00;;;;;;;1.63;1.50;;;22.20;57.70;;;;;;5034182;28;20047;-73
2022/07/31 06:52:27;;;;;;;2.05;1.65;;;22.20;57.60;;;;;;5017395;28;20060;-73
2022/07/31 06:54:55;;;;;;;2.10;1.55;;;22.40;61.50;;;;;;5035238;28;20041;-73
2022/07/31 06:57:22;;;;;;;2.50;1.50;;;22.20;57.60;;;;;;5003169;28;20141;-73
2022/07/31 06:59:48;;;;;;;1.80;1.58;;;22.30;62.90;;;;;;5017413;28;20120;-73
2022/07/31 07:02:15;;;;;;;1.58;1.48;;;22.20;57.60;;;;;;5025082;28;20462;-73
2022/07/31 07:04:42;;;;;;;1.33;1.23;;;22.20;57.60;;;;;;5012960;28;20057;-73
2022/07/31 07:07:09;;;;;;;2.67;1.40;;;22.50;62.40;;;;;;5023413;28;20046;-73
2022/07/31 07:09:36;;;;;;;2.60;1.40;;;22.20;57.60;;;;;;5000678;28;20041;-73
2022/07/31 07:12:04;;;;;;;1.60;1.50;;;21.60;61.00;;;;;;5016710;28;20103;-73
2022/07/31 07:14:31;;;;;;;1.92;1.73;;;22.30;61.80;;;;;;5034046;28;20060;-73
2022/07/31 07:16:57;;;;;;;1.80;1.50;;;22.30;57.60;;;;;;5016511;28;20049;-73
2022/07/31 07:19:24;;;;;;;1.50;1.40;;;22.30;57.60;;;;;;5016841;28;20465;-73
2022/07/31 07:21:51;;;;;;;1.70;1.50;;;22.20;61.40;;;;;;5033081;28;20057;-73
2022/07/31 07:24:17;;;;;;;1.73;1.40;;;22.30;57.60;;;;;;5016883;28;20045;-73
2022/07/31 07:26:44;;;;;;;1.73;1.45;;;22.30;57.60;;;;;;5016442;28;20051;-72
2022/07/31 07:29:12;;;;;;;2.20;1.50;;;22.40;57.60;;;;;;5033967;28;20072;-72
2022/07/31 07:31:39;;;;;;;1.73;1.50;;;22.40;57.60;;;;;;5032322;28;20489;-72
2022/07/31 07:34:08;;;;;;;1.40;1.30;;;22.60;57.70;;;;;;5033890;28;20129;-72
2022/07/31 07:36:34;;;;;;;1.65;1.40;;;22.40;62.20;;;;;;5011401;28;20588;-72
2022/07/31 07:39:01;;;;;;;1.60;1.40;;;22.40;57.50;;;;;;5032587;28;20413;-72
2022/07/31 07:41:28;;;;;;;1.40;1.30;;;22.30;62.30;;;;;;5015061;28;20057;-72
2022/07/31 07:43:54;;;;;;;1.45;1.33;;;22.40;57.50;;;;;;5016422;28;20054;-73
2022/07/31 07:46:23;;;;;;;1.52;1.20;;;22.40;61.30;;;;;;5016284;28;20132;-73
2022/07/31 07:48:50;;;;;;;1.70;1.50;;;22.40;57.50;;;;;;5024158;28;20125;-73
2022/07/31 07:51:17;;;;;;;1.60;1.50;;;22.40;57.40;;;;;;5013418;28;20056;-73
2022/07/31 07:53:44;;;;;;;1.50;1.33;;;22.30;61.40;;;;;;5029263;28;20124;-73
2022/07/31 07:56:11;;;;;;;1.52;1.40;;;22.40;57.40;;;;;;5028955;28;20056;-73
2022/07/31 07:58:38;;;;;;;1.40;1.30;;;22.50;58.10;;;;;;5016393;28;20103;-73
2022/07/31 08:01:04;;;;;;;1.60;1.40;;;22.40;57.40;;;;;;5011842;28;20159;-73
2022/07/31 08:03:32;;;;;;;1.60;1.48;;;22.50;57.40;;;;;;5016322;28;20107;-73
2022/07/31 08:05:59;;;;;;;1.40;1.30;;;22.50;57.40;;;;;;5016127;28;20075;-74
2022/07/31 08:08:26;;;;;;;1.42;1.33;;;22.40;57.30;;;;;;5016780;28;20061;-77
2022/07/31 08:10:53;;;;;;;2.38;1.52;;;22.50;57.30;;;;;;5016033;28;20118;-76
2022/07/31 08:13:20;;;;;;;2.28;1.50;;;22.50;57.30;;;;;;5016597;28;20057;-76
2022/07/31 08:15:46;;;;;;;1.75;1.60;;;22.50;57.30;;;;;;5016256;28;20387;-76
2022/07/31 08:18:13;;;;;;;2.88;1.70;;;22.50;57.30;;;;;;5014892;28;20057;-76
2022/07/31 08:20:41;;;;;;;1.50;1.40;;;22.50;57.30;;;;;;5014721;28;20569;-76
2022/07/31 08:23:08;;;;;;;1.52;1.40;;;22.50;57.30;;;;;;5015855;28;20053;-74
2022/07/31 08:25:34;;;;;;;2.20;1.48;;;22.50;57.20;;;;;;5016110;28;20049;-72
2022/07/31 08:28:01;;;;;;;1.73;1.30;;;22.50;57.20;;;;;;5015963;28;20084;-74
2022/07/31 08:30:28;;;;;;;3.28;1.40;;;22.40;60.00;;;;;;5015653;28;20053;-72
2022/07/31 08:32:55;;;;;;;2.28;1.55;;;22.50;57.40;;;;;;5016111;28;20053;-72
2022/07/31 08:35:21;;;;;;;2.65;1.60;;;22.50;57.40;;;;;;5032495;28;20077;-72
2022/07/31 08:37:49;;;;;;;3.47;1.55;;;22.60;57.40;;;;;;5015791;28;20053;-72
2022/07/31 08:40:17;;;;;;;1.98;1.50;;;22.00;59.70;;;;;;5015514;28;20056;-72
2022/07/31 08:42:45;;;;;;;3.20;1.85;;;22.50;61.60;;;;;;5032374;28;20061;-72
2022/07/31 08:45:12;;;;;;;2.33;1.60;;;22.20;62.40;;;;;;5033290;28;20079;-72
2022/07/31 08:47:40;;;;;;;3.55;1.60;;;22.60;57.60;;;;;;5015923;28;20057;-72
2022/07/31 08:50:07;;;;;;;9.73;1.77;;;22.60;57.60;;;;;;5032109;28;20081;-72
2022/07/31 08:52:34;;;;;;;3.47;1.60;;;22.60;61.80;;;;;;5033430;28;20053;-72
2022/07/31 08:55:05;;;;;;;2.10;1.77;;;22.40;61.50;;;;;;5015429;28;20050;-72
2022/07/31 08:57:32;;;;;;;2.25;1.52;;;22.70;57.50;;;;;;5015537;28;20065;-72
2022/07/31 08:59:59;;;;;;;3.15;1.67;;;22.70;57.40;;;;;;5031839;28;20145;-72
2022/07/31 09:02:25;;;;;;;2.22;1.70;;;22.80;57.40;;;;;;5031939;28;20136;-72
2022/07/31 09:04:53;;;;;;;2.80;1.60;;;23.90;62.80;;;;;;5033199;28;20060;-72
2022/07/31 09:07:20;;;;;;;4.00;1.55;;;22.80;57.30;;;;;;5015658;28;20103;-72
2022/07/31 09:09:46;;;;;;;2.10;1.60;;;22.80;61.90;;;;;;5015019;28;20132;-72
2022/07/31 09:12:14;;;;;;;2.53;1.60;;;22.90;57.20;;;;;;5032674;28;20406;-72
2022/07/31 09:14:47;;;;;;;3.50;1.63;;;22.90;57.10;;;;;;5030790;28;20061;-72
2022/07/31 09:17:14;;;;;;;3.10;1.63;;;23.00;57.20;;;;;;5014576;28;20061;-72
2022/07/31 09:19:44;;;;;;;3.60;1.70;;;23.00;57.20;;;;;;5031088;28;20076;-72
2022/07/31 09:22:19;;;;;;;3.60;1.60;;;22.70;61.20;;;;;;5014366;28;20538;-72
2022/07/31 09:24:46;;;;;;;2.63;1.58;;;23.00;57.10;;;;;;5014036;28;20049;-72
2022/07/31 09:27:16;;;;;;;3.15;1.60;;;23.00;57.10;;;;;;5015121;28;20068;-72
2022/07/31 09:29:44;;;;;;;2.78;1.70;;;23.10;60.80;;;;;;5014525;28;20481;-72
2022/07/31 09:32:11;;;;;;;5.07;1.52;;;22.80;60.50;;;;;;5013112;28;20111;-72
2022/07/31 09:34:38;;;;;;;1.98;1.48;;;23.00;57.10;;;;;;5014466;28;20136;-72
2022/07/31 09:37:11;;;;;;;3.92;1.58;;;22.80;61.30;;;;;;5014614;28;20060;-72
2022/07/31 09:39:39;;;;;;;2.30;1.70;;;23.00;57.20;;;;;;5011789;28;20057;-72
2022/07/31 09:42:06;;;;;;;3.05;1.60;;;22.80;61.80;;;;;;5013721;28;20080;-72
2022/07/31 09:44:38;;;;;;;3.05;1.60;;;22.90;57.20;;;;;;5013479;28;20057;-72
2022/07/31 09:47:05;;;;;;;3.03;1.60;;;23.00;61.40;;;;;;5011159;28;20478;-72
2022/07/31 09:49:32;;;;;;;1.63;1.50;;;22.90;57.20;;;;;;5013597;28;20064;-72
2022/07/31 09:52:00;;;;;;;1.98;1.50;;;22.90;57.30;;;;;;5013243;28;20645;-72
2022/07/31 09:54:28;;;;;;;2.58;1.50;;;22.90;57.30;;;;;;5028690;28;20049;-72
2022/07/31 09:56:55;;;;;;;4.53;1.55;;;22.90;57.40;;;;;;5013531;28;20128;-72
2022/07/31 09:59:22;;;;;;;2.13;1.70;;;22.90;61.70;;;;;;5030723;28;20049;-72
2022/07/31 10:01:50;;;;;;;2.97;1.67;;;22.80;57.40;;;;;;5025996;28;20048;-72
2022/07/31 10:04:17;;;;;;;1.83;1.67;;;22.80;58.00;;;;;;5012481;28;20125;-72
2022/07/31 10:06:45;;;;;;;1.77;1.52;;;22.00;62.30;;;;;;5013355;28;20077;-72
2022/07/31 10:09:12;;;;;;;1.48;1.38;;;22.80;61.60;;;;;;5028706;28;20063;-72
2022/07/31 10:11:39;;;;;;;1.80;1.52;;;22.80;57.50;;;;;;5031122;28;20052;-72
2022/07/31 10:14:05;;;;;;;2.35;1.60;;;22.80;57.40;;;;;;5013605;28;20129;-72
2022/07/31 10:16:33;;;;;;;2.47;1.60;;;22.90;62.00;;;;;;5031489;28;20129;-72
2022/07/31 10:19:02;;;;;;;2.45;1.50;;;22.20;61.80;;;;;;5014021;28;20053;-72
2022/07/31 10:21:37;;;;;;;1.60;1.50;;;23.00;61.80;;;;;;5013316;28;20128;-72
2022/07/31 10:24:04;;;;;;;2.13;1.60;;;22.80;57.40;;;;;;5012826;28;20064;-72
2022/07/31 10:26:31;;;;;;;2.63;1.60;;;22.90;57.50;;;;;;5031291;28;20421;-72
2022/07/31 10:28:58;;;;;;;1.70;1.40;;;22.80;57.50;;;;;;5028274;28;20103;-72
2022/07/31 10:31:25;;;;;;;1.80;1.55;;;22.80;57.50;;;;;;5013382;28;20049;-72
2022/07/31 10:33:53;;;;;;;2.88;1.70;;;23.00;57.60;;;;;;5031275;28;20045;-72
2022/07/31 10:36:22;;;;;;;2.05;1.50;;;22.80;57.50;;;;;;5013516;28;20056;-72
2022/07/31 10:38:51;;;;;;;2.67;1.60;;;22.90;61.50;;;;;;5013593;28;20057;-72
2022/07/31 10:41:34;;;;;;;2.67;1.70;;;22.80;57.50;;;;;;5012880;28;20045;-72
2022/07/31 10:44:03;;;;;;;3.45;1.60;;;22.50;61.00;;;;;;5012876;28;20050;-72
2022/07/31 10:46:30;;;;;;;2.08;1.73;;;22.80;57.60;;;;;;5011267;28;20061;-72
2022/07/31 10:48:57;;;;;;;1.52;1.38;;;22.30;61.40;;;;;;5031155;28;20045;-72
2022/07/31 10:51:25;;;;;;;2.05;1.65;;;23.30;62.70;;;;;;5029787;28;20050;-71
2022/07/31 10:53:56;;;;;;;2.13;1.73;;;22.80;57.80;;;;;;5013338;28;20132;-71
2022/07/31 10:56:22;;;;;;;1.90;1.63;;;22.80;57.80;;;;;;5013457;28;20065;-72
2022/07/31 10:58:50;;;;;;;2.22;1.65;;;22.80;61.80;;;;;;5014101;28;20089;-74
2022/07/31 11:01:17;;;;;;;1.70;1.60;;;22.80;57.90;;;;;;5013527;28;20478;-76
2022/07/31 11:03:45;;;;;;;2.17;1.80;;;23.00;61.70;;;;;;5013366;28;20454;-75
2022/07/31 11:06:12;;;;;;;2.75;1.80;;;22.80;58.00;;;;;;5013759;28;20072;-76
2022/07/31 11:08:44;;;;;;;2.25;1.75;;;22.80;58.10;;;;;;5014021;28;20080;-75
2022/07/31 11:11:11;;;;;;;3.55;1.75;;;22.80;58.10;;;;;;5013617;28;20075;-75
2022/07/31 11:13:48;;;;;;;2.83;2.05;;;22.80;58.10;;;;;;5030893;28;20515;-73
2022/07/31 11:16:15;;;;;;;3.35;1.80;;;22.80;58.10;;;;;;5013441;28;20092;-75
2022/07/31 11:18:46;;;;;;;3.67;2.00;;;21.90;60.30;;;;;;5012994;28;20132;-74
2022/07/31 11:21:13;;;;;;;2.67;1.80;;;22.80;58.20;;;;;;5011398;28;20129;-75
2022/07/31 11:23:40;;;;;;;2.22;1.77;;;22.80;61.90;;;;;;5010323;28;20049;-75
2022/07/31 11:26:08;;;;;;;1.92;1.70;;;22.60;62.60;;;;;;5013376;28;20059;-75
2022/07/31 11:28:35;;;;;;;2.10;1.60;;;22.80;58.10;;;;;;5012694;28;20128;-75
2022/07/31 11:31:02;;;;;;;2.67;1.73;;;22.90;58.10;;;;;;5009946;28;20160;-75
2022/07/31 11:33:34;;;;;;;3.90;2.03;;;22.70;60.70;;;;;;5011681;28;20549;-74
2022/07/31 11:36:08;;;;;;;3.42;1.70;;;22.80;58.10;;;;;;5030029;28;20455;-73
2022/07/31 11:38:35;;;;;;;2.58;1.70;;;22.20;62.10;;;;;;5016318;28;20057;-74
2022/07/31 11:41:02;;;;;;;1.70;1.60;;;22.80;58.10;;;;;;5009000;28;20491;-74
2022/07/31 11:43:30;;;;;;;3.45;1.73;;;22.90;58.20;;;;;;5015733;28;20469;-74
2022/07/31 11:45:57;;;;;;;2.00;1.70;;;22.90;58.10;;;;;;5016985;28;20119;-72
2022/07/31 11:48:25;;;;;;;2.95;1.73;;;22.90;58.20;;;;;;5016799;28;20061;-72
2022/07/31 11:50:52;;;;;;;2.78;1.83;;;22.90;58.20;;;;;;5016107;28;20080;-72
2022/07/31 11:53:19;;;;;;;2.42;1.70;;;22.70;61.50;;;;;;5016830;28;20053;-72
2022/07/31 11:55:47;;;;;;;1.83;1.60;;;22.90;58.20;;;;;;5016714;28;20053;-72
2022/07/31 11:58:15;;;;;;;3.60;1.55;;;22.90;58.20;;;;;;5016771;28;20495;-72
2022/07/31 12:00:48;;;;;;;2.55;1.85;;;22.90;58.20;;;;;;5014523;28;20136;-73
2022/07/31 12:03:16;;;;;;;1.90;1.67;;;22.90;58.70;;;;;;5015896;28;20136;-72
2022/07/31 12:05:46;;;;;;;2.50;1.80;;;22.90;58.20;;;;;;5015177;28;20064;-73
2022/07/31 12:08:13;;;;;;;2.90;1.77;;;22.90;61.90;;;;;;5033469;28;20124;-73
2022/07/31 12:10:40;;;;;;;2.72;1.80;;;22.90;58.20;;;;;;5032795;28;20064;-72
2022/07/31 12:13:11;;;;;;;2.00;1.77;;;22.90;58.20;;;;;;5015590;28;20607;-73
2022/07/31 12:15:37;;;;;;;2.10;1.60;;;22.70;62.50;;;;;;5015277;28;20500;-73
2022/07/31 12:18:06;;;;;;;5.82;1.58;;;22.90;58.30;;;;;;5015630;28;20140;-73
2022/07/31 12:20:33;;;;;;;1.75;1.50;;;23.00;58.40;;;;;;5032648;28;20045;-73
2022/07/31 12:23:00;;;;;;;1.70;1.42;;;22.80;58.40;;;;;;5015535;28;20144;-75
2022/07/31 12:25:27;;;;;;;2.78;1.70;;;22.90;58.50;;;;;;5015651;28;20142;-75
2022/07/31 12:27:53;;;;;;;3.47;1.88;;;22.90;58.50;;;;;;5015621;28;20413;-73
2022/07/31 12:30:23;;;;;;;4.93;1.98;;;22.10;61.00;;;;;;5014632;28;20477;-73
2022/07/31 12:32:49;;;;;;;2.08;1.77;;;22.90;58.60;;;;;;5015490;28;20049;-74
2022/07/31 12:35:17;;;;;;;3.83;1.75;;;22.80;63.60;;;;;;5015277;28;20057;-74
2022/07/31 12:37:45;;;;;;;2.10;1.90;;;23.00;62.70;;;;;;5033195;28;20079;-72
2022/07/31 12:40:28;;;;;;;2.15;1.80;;;23.80;62.50;;;;;;5015364;28;20115;-72
2022/07/31 12:42:56;;;;;;;4.30;2.22;;;22.70;58.60;;;;;;5013173;28;20045;-72
2022/07/31 12:45:44;;;;;;;4.25;1.80;;;22.80;58.90;;;;;;5015853;28;20575;-72
2022/07/31 12:48:10;;;;;;;2.45;1.77;;;22.70;63.20;;;;;;5014942;28;20064;-72
2022/07/31 12:50:39;;;;;;;2.55;1.83;;;23.00;59.10;;;;;;5014954;28;20481;-73
2022/07/31 12:53:05;;;;;;;3.25;1.60;;;22.80;59.00;;;;;;5015759;28;20088;-73
2022/07/31 12:55:33;;;;;;;2.20;1.80;;;22.80;59.10;;;;;;5015234;28;20053;-73